Belmonte, Brazil
Current Conditions -  °F | °C
As of 3:00 PM on Sunday 21 Dec 2014 (Local Time) from SBCH Reporting Station
Broken Clouds Broken Clouds  
Wind Chill: 75°   Ceiling: 3500
Heat Index: 75°   Visibility: 6mi
Dew Point: 70°   Wind: 18mph
Humidity: 83%   Direction: 350°N
Pressure: 29.62"   Gusts: NA
Location:  26.84°S, 53.58°W
Report Text: SBCH 211700Z 35016KT 9999 FEW012 BKN035 BKN090 24/21 Q1003
Loading
Personal Weather Stations






























Interactive Weather Map New forecast layout! Learn more

10-Day Weather Forecast

Advertisements
Track Severe Weather on mobile